METAR Data
IDs: Format: Raw Decoded Include TAF

Data at: 2055 UTC 17 Nov 2019

METAR for:PAVC (King Cove Arpt, AK, US)
Text:PAVC 171956Z AUTO 25006KT 10SM OVC037 03/01 A2963 RMK AO2 SLP035 T00330006
Temperature: 3.3°C ( 38°F)
Dewpoint: 0.6°C ( 33°F) [RH = 82%]
Pressure (altimeter):29.63 inches Hg (1003.5 mb) [Sea level pressure: 1003.5 mb]
Winds:from the WSW (250 degrees) at 7 MPH (6 knots; 3.1 m/s)
Visibility:10 or more sm (16+ km)
Ceiling:3700 feet AGL
Clouds: overcast cloud deck at 3700 feet AGL
QC Flag:automated observation with no human augmentation
Text:PAVC 171856Z AUTO 28006KT 10SM BKN033 02/00 A2962 RMK AO2 RAE05 SLP031 P0000 T00220000 FZRANO
Temperature: 2.2°C ( 36°F)
Dewpoint: 0.0°C ( 32°F) [RH = 85%]
Pressure (altimeter):29.62 inches Hg (1003.1 mb) [Sea level pressure: 1003.1 mb]
Winds:from the W (280 degrees) at 7 MPH (6 knots; 3.1 m/s)
Visibility:10 or more sm (16+ km)
Ceiling:3300 feet AGL
Clouds: broken clouds at 3300 feet AGL
QC Flag:automated observation with no human augmentation
Text:PAVC 171807Z AUTO 22009KT 10SM FEW019 BKN035 02/01 A2961 RMK AO2 RAE05 P0000 FZRANO
Temperature: 2.0°C ( 36°F)
Dewpoint: 1.0°C ( 34°F) [RH = 93%]
Pressure (altimeter):29.61 inches Hg (1002.8 mb)
Winds:from the SW (220 degrees) at 10 MPH (9 knots; 4.6 m/s)
Visibility:10 or more sm (16+ km)
Ceiling:3500 feet AGL
Clouds: few clouds at 1900 feet AGL, broken clouds at 3500 feet AGL
QC Flag:automated observation with no human augmentation
Text:PAVC 171756Z AUTO 24009KT 10SM -RA FEW019 BKN025 OVC037 03/01 A2961 RMK AO2 UPE1657RAB1657E11B31 SLP027 P0000 60000 T00280011 10033 20011 51009
Temperature: 2.8°C ( 37°F)
Dewpoint: 1.1°C ( 34°F) [RH = 89%]
Pressure (altimeter):29.61 inches Hg (1002.8 mb) [Sea level pressure: 1002.7 mb]
Winds:from the WSW (240 degrees) at 10 MPH (9 knots; 4.6 m/s)
Visibility:10 or more sm (16+ km)
Ceiling:2500 feet AGL
Clouds: few clouds at 1900 feet AGL, broken clouds at 2500 feet AGL, overcast cloud deck at 3700 feet AGL
Weather:-RA (light rain)
QC Flag:automated observation with no human augmentation
Text:PAVC 171737Z AUTO 24009KT 10SM -RA BKN022 BKN029 OVC041 03/01 A2961 RMK AO2 UPE1657RAB1657E11B31 P0000
Temperature: 3.0°C ( 37°F)
Dewpoint: 1.0°C ( 34°F) [RH = 87%]
Pressure (altimeter):29.61 inches Hg (1002.8 mb)
Winds:from the WSW (240 degrees) at 10 MPH (9 knots; 4.6 m/s)
Visibility:10 or more sm (16+ km)
Ceiling:2200 feet AGL
Clouds: broken clouds at 2200 feet AGL, broken clouds at 2900 feet AGL, overcast cloud deck at 4100 feet AGL
Weather:-RA (light rain)
QC Flag:automated observation with no human augmentation
Text:PAVC 171718Z AUTO 23010KT 10SM FEW021 SCT030 BKN041 03/01 A2960 RMK AO2 UPE1657RAB1657E11 P0000
Temperature: 3.0°C ( 37°F)
Dewpoint: 1.0°C ( 34°F) [RH = 87%]
Pressure (altimeter):29.60 inches Hg (1002.5 mb)
Winds:from the SW (230 degrees) at 12 MPH (10 knots; 5.1 m/s)
Visibility:10 or more sm (16+ km)
Ceiling:4100 feet AGL
Clouds: few clouds at 2100 feet AGL, scattered clouds at 3000 feet AGL, broken clouds at 4100 feet AGL
QC Flag:automated observation with no human augmentation
Text:PAVC 171656Z AUTO 24010KT 10SM UP BKN019 BKN026 OVC034 03/01 A2960 RMK AO2 RAB02E50UPB14E19B50 SLP024 P0000 T00280006
Temperature: 2.8°C ( 37°F)
Dewpoint: 0.6°C ( 33°F) [RH = 85%]
Pressure (altimeter):29.60 inches Hg (1002.5 mb) [Sea level pressure: 1002.4 mb]
Winds:from the WSW (240 degrees) at 12 MPH (10 knots; 5.1 m/s)
Visibility:10 or more sm (16+ km)
Ceiling:1900 feet AGL
Clouds: broken clouds at 1900 feet AGL, broken clouds at 2600 feet AGL, overcast cloud deck at 3400 feet AGL
Weather:UP (unknown precipitation)
QC Flag:automated observation with no human augmentation
Text:PAVC 171556Z AUTO 23006KT 10SM BKN026 OVC032 03/01 A2959 RMK AO2 RAE08B32E44UPB08E22B44E48 SLP021 P0000 T00330006
Temperature: 3.3°C ( 38°F)
Dewpoint: 0.6°C ( 33°F) [RH = 82%]
Pressure (altimeter):29.59 inches Hg (1002.1 mb) [Sea level pressure: 1002.1 mb]
Winds:from the SW (230 degrees) at 7 MPH (6 knots; 3.1 m/s)
Visibility:10 or more sm (16+ km)
Ceiling:2600 feet AGL
Clouds: broken clouds at 2600 feet AGL, overcast cloud deck at 3200 feet AGL
QC Flag:automated observation with no human augmentation
Text:PAVC 171510Z AUTO 23007KT 10SM UP FEW018 BKN024 OVC032 02/01 A2958 RMK AO2 RAE08UPB08 P0000 FZRANO
Temperature: 2.0°C ( 36°F)
Dewpoint: 1.0°C ( 34°F) [RH = 93%]
Pressure (altimeter):29.58 inches Hg (1001.8 mb)
Winds:from the SW (230 degrees) at 8 MPH (7 knots; 3.6 m/s)
Visibility:10 or more sm (16+ km)
Ceiling:2400 feet AGL
Clouds: few clouds at 1800 feet AGL, broken clouds at 2400 feet AGL, overcast cloud deck at 3200 feet AGL
Weather:UP (unknown precipitation)
QC Flag:automated observation with no human augmentation
Text:PAVC 171456Z AUTO 23006KT 10SM -RA FEW018 BKN032 OVC039 02/01 A2958 RMK AO2 UPE1357B18E49RAB1357E15B49 SLP017 P0000 60000 T00220006 51008 FZRANO
Temperature: 2.2°C ( 36°F)
Dewpoint: 0.6°C ( 33°F) [RH = 89%]
Pressure (altimeter):29.58 inches Hg (1001.8 mb) [Sea level pressure: 1001.7 mb]
Winds:from the SW (230 degrees) at 7 MPH (6 knots; 3.1 m/s)
Visibility:10 or more sm (16+ km)
Ceiling:3200 feet AGL
Clouds: few clouds at 1800 feet AGL, broken clouds at 3200 feet AGL, overcast cloud deck at 3900 feet AGL
Weather:-RA (light rain)
QC Flag:automated observation with no human augmentation

TAF for:PAVC (King Cove Arpt, AK, US)
Text:No data found